createdAt,value
2018-12-12T00:00:05.613Z,100378.42
2018-12-12T00:02:44.539Z,100384.17
2018-12-12T00:05:24.665Z,100379.16
2018-12-12T00:08:03.170Z,100374.98
2018-12-12T00:10:42.852Z,100374.10
2018-12-12T00:13:22.309Z,100365.35
2018-12-12T00:16:00.963Z,100366.28
2018-12-12T00:18:39.395Z,100372.05
2018-12-12T00:21:17.970Z,100375.13
2018-12-12T00:23:57.560Z,100366.84
2018-12-12T00:26:36.150Z,100377.02
2018-12-12T00:29:14.622Z,100375.29
2018-12-12T00:31:54.376Z,100372.30
2018-12-12T00:34:33.678Z,100371.61
2018-12-12T00:37:12.571Z,100374.26
2018-12-12T00:39:52.593Z,100367.05
2018-12-12T00:42:32.425Z,100364.72
2018-12-12T00:45:11.131Z,100367.02
2018-12-12T00:47:49.920Z,100369.29
2018-12-12T00:50:29.003Z,100370.50
2018-12-12T00:53:08.865Z,100365.15
2018-12-12T00:55:47.911Z,100366.23
2018-12-12T00:58:26.940Z,100356.95
2018-12-12T01:01:06.481Z,100359.06
2018-12-12T01:06:35.464Z,100360.62
2018-12-12T01:09:15.947Z,100359.95
2018-12-12T01:11:58.347Z,100368.48
2018-12-12T01:14:38.822Z,100359.40
2018-12-12T01:17:18.549Z,100361.08
2018-12-12T01:19:58.307Z,100363.43
2018-12-12T01:22:38.582Z,100354.25
2018-12-12T01:25:17.711Z,100361.03
2018-12-12T01:27:56.778Z,100357.58
2018-12-12T01:30:36.209Z,100358.53
2018-12-12T01:33:15.824Z,100352.95
2018-12-12T01:35:56.727Z,100354.77
2018-12-12T01:38:36.768Z,100350.73
2018-12-12T01:41:16.221Z,100351.77
2018-12-12T01:43:56.059Z,100343.26
2018-12-12T01:46:35.459Z,100344.94
2018-12-12T01:49:15.045Z,100330.41
2018-12-12T01:51:54.297Z,100332.67
2018-12-12T01:54:33.490Z,100325.69
2018-12-12T01:57:12.755Z,100322.97
2018-12-12T01:59:51.835Z,100310.56
2018-12-12T02:02:34.280Z,100299.67
2018-12-12T02:05:13.749Z,100301.28
2018-12-12T02:08:02.704Z,100291.70
2018-12-12T02:10:43.858Z,100301.33
2018-12-12T02:13:33.916Z,100299.38
2018-12-12T02:16:14.407Z,100285.16
2018-12-12T02:18:54.475Z,100281.37
2018-12-12T02:21:35.077Z,100272.75
2018-12-12T02:24:16.335Z,100268.91
2018-12-12T02:26:55.762Z,100269.77
2018-12-12T02:29:35.272Z,100271.66
2018-12-12T02:32:15.959Z,100269.42
2018-12-12T02:34:55.442Z,100260.31
2018-12-12T02:37:34.741Z,100249.66
2018-12-12T02:40:13.936Z,100234.56
2018-12-12T02:42:53.363Z,100240.58
2018-12-12T02:45:33.166Z,100230.53
2018-12-12T02:48:16.770Z,100232.88
2018-12-12T02:50:56.004Z,100226.20
2018-12-12T02:53:36.649Z,100216.83
2018-12-12T02:56:16.341Z,100219.86
2018-12-12T02:58:56.023Z,100214.73
2018-12-12T03:01:36.443Z,100205.28
2018-12-12T03:04:16.522Z,100199.59
2018-12-12T03:06:56.741Z,100204.84
2018-12-12T03:09:37.926Z,100194.31
2018-12-12T03:12:25.349Z,100183.50
2018-12-12T03:15:04.784Z,100186.70
2018-12-12T03:17:44.401Z,100178.97
2018-12-12T03:20:23.160Z,100172.37
2018-12-12T03:23:02.368Z,100164.24
2018-12-12T03:25:43.907Z,100170.94
2018-12-12T03:28:26.729Z,100158.34
2018-12-12T03:31:12.914Z,100139.55
2018-12-12T03:33:51.904Z,100149.27
2018-12-12T03:36:32.420Z,100132.23
2018-12-12T03:39:14.284Z,100144.66
2018-12-12T03:41:53.175Z,100141.22
2018-12-12T03:44:32.494Z,100139.36
2018-12-12T03:47:13.582Z,100138.91
2018-12-12T03:49:52.444Z,100130.23
2018-12-12T03:52:33.956Z,100128.39
2018-12-12T03:55:13.139Z,100137.59
2018-12-12T03:57:52.217Z,100125.23
2018-12-12T04:00:32.180Z,100117.08
2018-12-12T04:03:11.225Z,100120.23
2018-12-12T04:05:51.218Z,100121.90
2018-12-12T04:08:29.937Z,100127.08
2018-12-12T04:11:08.883Z,100113.46
2018-12-12T04:13:48.866Z,100109.75
2018-12-12T04:16:28.231Z,100103.11
2018-12-12T04:19:10.451Z,100098.95
2018-12-12T04:21:51.712Z,100090.47
2018-12-12T04:24:32.940Z,100094.78
2018-12-12T04:27:14.526Z,100081.47
2018-12-12T04:29:56.374Z,100078.97
2018-12-12T04:32:39.080Z,100079.98
2018-12-12T04:35:20.631Z,100081.45
2018-12-12T04:38:01.669Z,100075.59
2018-12-12T04:40:42.530Z,100077.10
2018-12-12T04:43:23.258Z,100071.14
2018-12-12T04:46:04.176Z,100069.25
2018-12-12T04:48:45.187Z,100060.06
2018-12-12T04:51:27.254Z,100053.63
2018-12-12T04:54:08.647Z,100056.31
2018-12-12T04:56:51.349Z,100048.29
2018-12-12T04:59:32.830Z,100042.94
2018-12-12T05:02:16.686Z,100035.12
2018-12-12T05:05:03.068Z,100026.87
2018-12-12T05:12:05.295Z,100020.02
2018-12-12T05:17:06.889Z,100002.48
2018-12-12T05:19:46.339Z,99995.78
2018-12-12T05:22:25.652Z,99999.53
2018-12-12T05:25:05.372Z,99994.86
2018-12-12T05:27:44.476Z,99988.02
2018-12-12T05:30:23.910Z,99988.22
2018-12-12T05:33:03.168Z,99980.75
2018-12-12T05:35:42.584Z,99974.04
2018-12-12T05:38:23.937Z,99964.95
2018-12-12T05:41:04.406Z,99965.67
2018-12-12T05:43:44.210Z,99975.73
2018-12-12T05:46:25.294Z,99973.30
2018-12-12T05:49:04.293Z,99967.40
2018-12-12T05:51:45.884Z,99966.40
2018-12-12T05:54:25.286Z,99972.21
2018-12-12T05:57:05.029Z,99958.06
2018-12-12T05:59:47.066Z,99954.67
2018-12-12T06:02:26.720Z,99952.14
2018-12-12T06:05:06.391Z,99943.00
2018-12-12T06:07:46.035Z,99946.86
2018-12-12T06:10:25.628Z,99948.08
2018-12-12T06:13:06.482Z,99932.69
2018-12-12T06:15:48.279Z,99932.00
2018-12-12T06:18:27.579Z,99934.53
2018-12-12T06:21:08.622Z,99934.69
2018-12-12T06:23:54.654Z,99923.55
2018-12-12T06:26:37.748Z,99919.27
2018-12-12T06:29:22.609Z,99925.41
2018-12-12T06:35:28.854Z,99916.58
2018-12-12T06:38:21.293Z,99917.55
2018-12-12T06:41:09.029Z,99917.88
2018-12-12T06:43:55.501Z,99914.80
2018-12-12T06:46:37.677Z,99917.98
2018-12-12T06:49:27.154Z,99908.49
2018-12-12T06:52:07.006Z,99910.88
2018-12-12T06:54:46.948Z,99914.25
2018-12-12T06:57:26.295Z,99915.47
2018-12-12T07:00:07.272Z,99916.91
2018-12-12T07:02:46.987Z,99914.75
2018-12-12T07:05:26.373Z,99912.58
2018-12-12T07:08:06.171Z,99908.91
2018-12-12T07:10:47.673Z,99902.72
2018-12-12T07:13:27.033Z,99901.71
2018-12-12T07:16:07.931Z,99901.02
2018-12-12T07:18:52.016Z,99888.98
2018-12-12T07:21:33.626Z,99888.17
2018-12-12T07:24:13.765Z,99889.17
2018-12-12T07:26:54.484Z,99890.05
2018-12-12T07:29:35.600Z,99887.04
2018-12-12T07:32:17.059Z,99883.17
2018-12-12T07:34:56.985Z,99883.08
2018-12-12T07:37:38.403Z,99885.23
2018-12-12T07:40:19.683Z,99879.49
2018-12-12T07:43:01.403Z,99884.80
2018-12-12T07:45:44.448Z,99884.63
2018-12-12T07:48:26.356Z,99882.21
2018-12-12T07:51:08.429Z,99874.91
2018-12-12T07:53:50.119Z,99874.20
2018-12-12T07:56:34.429Z,99869.19
2018-12-12T07:59:14.588Z,99866.19
2018-12-12T08:01:54.466Z,99885.18
2018-12-12T08:04:34.836Z,99881.22
2018-12-12T08:07:17.662Z,99876.23
2018-12-12T08:09:58.608Z,99874.38
2018-12-12T08:12:38.778Z,99879.35
2018-12-12T08:15:18.559Z,99876.88
2018-12-12T08:17:58.706Z,99870.87
2018-12-12T08:20:39.882Z,99878.23
2018-12-12T08:23:21.690Z,99875.61
2018-12-12T08:26:00.939Z,99874.73
2018-12-12T08:28:40.856Z,99876.23
2018-12-12T08:31:22.747Z,99877.11
2018-12-12T08:34:02.113Z,99878.45
2018-12-12T08:36:44.068Z,99872.44
2018-12-12T08:39:24.456Z,99876.75
2018-12-12T08:42:06.191Z,99872.70
2018-12-12T08:44:47.992Z,99884.58
2018-12-12T08:47:29.097Z,99884.27
2018-12-12T08:50:11.068Z,99875.66
2018-12-12T08:52:53.554Z,99878.64
2018-12-12T08:55:35.448Z,99880.63
2018-12-12T08:58:15.925Z,99879.30
2018-12-12T09:01:00.048Z,99882.62
2018-12-12T09:03:39.863Z,99876.95
2018-12-12T09:06:19.414Z,99877.94
2018-12-12T09:08:58.698Z,99875.80
2018-12-12T09:11:38.168Z,99868.78
2018-12-12T09:14:17.448Z,99881.78
2018-12-12T09:17:43.633Z,99880.77
2018-12-12T09:22:35.754Z,99886.13
2018-12-12T09:25:18.013Z,99878.82
2018-12-12T09:30:06.744Z,99876.70
2018-12-12T09:32:47.376Z,99872.34
2018-12-12T09:35:29.180Z,99867.69
2018-12-12T09:38:09.062Z,99869.39
2018-12-12T09:40:48.980Z,99872.21
2018-12-12T09:43:29.349Z,99861.01
2018-12-12T09:46:10.234Z,99865.38
2018-12-12T09:48:53.527Z,99866.34
2018-12-12T09:51:33.578Z,99862.82
2018-12-12T09:54:13.340Z,99862.50
2018-12-12T09:56:54.602Z,99860.39
2018-12-12T09:59:35.186Z,99863.66
2018-12-12T10:02:18.194Z,99875.30
2018-12-12T10:04:58.651Z,99871.80
2018-12-12T10:07:38.826Z,99869.95
2018-12-12T10:10:20.517Z,99874.81
2018-12-12T10:12:59.962Z,99874.47
2018-12-12T10:15:40.049Z,99872.30
2018-12-12T10:18:20.366Z,99870.38
2018-12-12T10:21:00.834Z,99867.19
2018-12-12T10:23:43.227Z,99860.84
2018-12-12T10:26:22.521Z,99864.53
2018-12-12T10:29:02.124Z,99869.81
2018-12-12T10:31:41.571Z,99872.98
2018-12-12T10:37:55.731Z,99867.66
2018-12-12T10:44:56.948Z,99854.38
2018-12-12T10:50:07.842Z,99847.51
2018-12-12T10:52:53.475Z,99846.06
2018-12-12T10:55:32.907Z,99844.60
2018-12-12T10:58:12.526Z,99849.44
2018-12-12T11:00:58.418Z,99850.75
2018-12-12T11:03:45.459Z,99851.21
2018-12-12T11:06:24.638Z,99840.92
2018-12-12T11:09:04.461Z,99842.44
2018-12-12T11:11:43.795Z,99838.59
2018-12-12T11:14:24.769Z,99836.25
2018-12-12T11:17:05.058Z,99832.87
2018-12-12T11:19:44.772Z,99834.55
2018-12-12T11:22:24.043Z,99828.05
2018-12-12T11:25:04.326Z,99824.27
2018-12-12T11:27:44.010Z,99826.41
2018-12-12T11:30:24.603Z,99822.29
2018-12-12T11:33:06.178Z,99819.27
2018-12-12T11:35:46.876Z,99821.56
2018-12-12T11:38:35.501Z,99813.38
2018-12-12T11:41:16.052Z,99817.17
2018-12-12T11:43:56.129Z,99806.73
2018-12-12T11:46:37.120Z,99813.23
2018-12-12T11:49:18.448Z,99798.04
2018-12-12T11:51:58.634Z,99799.22
2018-12-12T11:54:38.063Z,99805.73
2018-12-12T11:57:22.370Z,99796.52
2018-12-12T12:00:02.689Z,99799.41
2018-12-12T12:02:43.209Z,99804.60
2018-12-12T12:05:23.913Z,99794.41
2018-12-12T12:08:03.855Z,99790.69
2018-12-12T12:10:44.133Z,99783.03
2018-12-12T12:13:26.315Z,99788.19
2018-12-12T12:16:08.314Z,99795.19
2018-12-12T12:18:50.595Z,99788.53
2018-12-12T12:21:31.810Z,99795.30
2018-12-12T12:24:12.401Z,99791.02
2018-12-12T12:26:53.684Z,99788.22
2018-12-12T12:29:34.626Z,99793.66
2018-12-12T12:32:16.512Z,99792.14
2018-12-12T12:34:55.952Z,99786.36
2018-12-12T12:37:41.503Z,99781.22
2018-12-12T12:40:21.209Z,99780.23
2018-12-12T12:43:01.652Z,99791.72
2018-12-12T12:45:40.971Z,99782.37
2018-12-12T12:48:23.755Z,99775.61
2018-12-12T12:51:02.410Z,99772.45
2018-12-12T12:53:42.558Z,99762.44
2018-12-12T12:56:22.348Z,99763.91
2018-12-12T12:59:03.207Z,99757.92
2018-12-12T13:01:43.111Z,99752.89
2018-12-12T13:04:24.746Z,99753.03
2018-12-12T13:07:06.289Z,99748.37
2018-12-12T13:09:53.864Z,99739.41
2018-12-12T13:13:00.511Z,99739.73
2018-12-12T13:19:41.517Z,99740.59
2018-12-12T13:29:57.894Z,99729.34
2018-12-12T13:32:45.636Z,99723.51
2018-12-12T13:35:34.471Z,99725.98
2018-12-12T13:38:17.699Z,99727.14
2018-12-12T13:41:01.323Z,99720.52
2018-12-12T13:43:43.241Z,99719.23
2018-12-12T13:46:25.144Z,99720.76
2018-12-12T13:49:05.813Z,99715.84
2018-12-12T13:51:46.352Z,99713.84
2018-12-12T13:54:26.556Z,99719.47
2018-12-12T13:57:06.280Z,99712.96
2018-12-12T13:59:45.835Z,99718.98
2018-12-12T14:02:27.989Z,99712.68
2018-12-12T14:05:06.811Z,99719.66
2018-12-12T14:07:45.981Z,99715.98
2018-12-12T14:10:25.363Z,99715.31
2018-12-12T14:13:04.775Z,99711.49
2018-12-12T14:15:45.604Z,99715.66
2018-12-12T14:25:25.663Z,99717.41
2018-12-12T14:28:05.901Z,99711.58
2018-12-12T14:30:45.984Z,99703.42
2018-12-12T14:33:30.549Z,99712.58
2018-12-12T14:36:11.722Z,99701.03
2018-12-12T14:38:52.015Z,99705.52
2018-12-12T14:41:31.416Z,99710.34
2018-12-12T14:44:12.040Z,99709.13
2018-12-12T14:46:51.354Z,99699.66
2018-12-12T14:49:30.269Z,99699.29
2018-12-12T14:52:10.899Z,99708.11
2018-12-12T14:54:50.141Z,99701.63
2018-12-12T14:57:29.541Z,99696.63
2018-12-12T15:00:09.234Z,99697.27
2018-12-12T15:02:50.273Z,99695.44
2018-12-12T15:05:29.149Z,99690.97
2018-12-12T15:08:08.242Z,99692.33
2018-12-12T15:10:47.483Z,99682.78
2018-12-12T15:13:26.605Z,99680.17
2018-12-12T15:16:05.958Z,99683.20
2018-12-12T15:18:45.415Z,99685.03
2018-12-12T15:21:25.900Z,99690.66
2018-12-12T15:24:05.567Z,99682.17
2018-12-12T15:26:44.675Z,99684.37
2018-12-12T15:29:23.617Z,99683.84
2018-12-12T15:32:05.445Z,99680.54
2018-12-12T15:34:44.373Z,99686.20
2018-12-12T15:37:23.631Z,99680.87
2018-12-12T15:40:03.150Z,99676.38
2018-12-12T15:42:44.472Z,99673.52
2018-12-12T15:45:23.582Z,99677.88
2018-12-12T15:48:03.965Z,99674.77
2018-12-12T15:50:45.824Z,99675.59
2018-12-12T15:53:25.284Z,99681.18
2018-12-12T15:56:05.274Z,99680.17
2018-12-12T15:58:44.187Z,99683.39
2018-12-12T16:01:24.053Z,99679.48
2018-12-12T16:04:03.259Z,99678.12
2018-12-12T16:06:42.847Z,99679.56
2018-12-12T16:09:22.352Z,99673.72
2018-12-12T16:12:07.529Z,99676.45
2018-12-12T16:14:46.460Z,99674.27
2018-12-12T16:17:30.531Z,99673.66
2018-12-12T16:20:10.189Z,99676.36
2018-12-12T16:22:50.271Z,99678.98
2018-12-12T16:25:29.417Z,99671.00
2018-12-12T16:28:08.667Z,99673.20
2018-12-12T16:30:48.249Z,99662.95
2018-12-12T16:33:27.327Z,99668.59
2018-12-12T16:36:06.589Z,99668.91
2018-12-12T16:38:45.752Z,99668.08
2018-12-12T16:41:24.752Z,99663.62
2018-12-12T16:44:04.731Z,99666.92
2018-12-12T16:46:44.193Z,99667.91
2018-12-12T16:49:23.445Z,99662.41
2018-12-12T16:52:02.611Z,99660.77
2018-12-12T16:54:41.479Z,99658.13
2018-12-12T16:57:20.960Z,99663.92
2018-12-12T17:00:01.618Z,99672.73
2018-12-12T17:02:40.758Z,99668.21
2018-12-12T17:05:20.566Z,99666.06
2018-12-12T17:08:00.270Z,99658.95
2018-12-12T17:10:40.243Z,99665.42
2018-12-12T17:13:19.267Z,99660.27
2018-12-12T17:15:58.157Z,99660.54
2018-12-12T17:18:39.543Z,99672.33
2018-12-12T17:21:19.924Z,99671.19
2018-12-12T17:24:01.518Z,99679.69
2018-12-12T17:26:40.690Z,99673.52
2018-12-12T17:29:19.903Z,99682.17
2018-12-12T17:31:58.908Z,99683.86
2018-12-12T17:34:40.256Z,99684.34
2018-12-12T17:37:21.173Z,99678.19
2018-12-12T17:40:02.738Z,99688.31
2018-12-12T17:42:42.272Z,99696.48
2018-12-12T17:45:21.835Z,99696.32
2018-12-12T17:48:00.956Z,99688.98
2018-12-12T17:50:40.459Z,99688.11
2018-12-12T17:53:21.826Z,99693.20
2018-12-12T17:56:01.327Z,99697.89
2018-12-12T17:58:40.615Z,99697.47
2018-12-12T18:01:21.605Z,99709.88
2018-12-12T18:04:00.874Z,99710.70
2018-12-12T18:06:41.792Z,99707.68
2018-12-12T18:09:21.527Z,99721.08
2018-12-12T18:12:00.137Z,99706.51
2018-12-12T18:14:39.406Z,99714.09
2018-12-12T18:17:18.513Z,99713.61
2018-12-12T18:20:00.150Z,99712.47
2018-12-12T18:22:38.945Z,99707.57
2018-12-12T18:25:20.026Z,99701.49
2018-12-12T18:27:58.909Z,99709.58
2018-12-12T18:30:37.903Z,99707.27
2018-12-12T18:33:16.964Z,99710.42
2018-12-12T18:35:56.100Z,99707.48
2018-12-12T18:38:36.787Z,99709.91
2018-12-12T18:41:16.650Z,99705.17
2018-12-12T18:43:55.293Z,99710.34
2018-12-12T18:46:35.094Z,99707.61
2018-12-12T18:49:14.013Z,99711.23
2018-12-12T18:51:55.357Z,99713.32
2018-12-12T18:54:34.373Z,99712.29
2018-12-12T18:57:13.202Z,99714.39
2018-12-12T18:59:54.412Z,99718.17
2018-12-12T19:02:50.137Z,99723.18
2018-12-12T19:05:31.550Z,99729.06
2018-12-12T19:08:10.578Z,99727.42
2018-12-12T19:10:50.082Z,99722.00
2018-12-12T19:13:30.854Z,99732.67
2018-12-12T19:16:10.122Z,99735.66
2018-12-12T19:18:52.568Z,99740.13
2018-12-12T19:21:38.981Z,99744.25
2018-12-12T19:24:17.754Z,99732.83
2018-12-12T19:26:56.766Z,99737.47
2018-12-12T19:29:35.268Z,99741.48
2018-12-12T19:32:16.029Z,99748.58
2018-12-12T19:34:55.738Z,99751.29
2018-12-12T19:37:35.546Z,99752.27
2018-12-12T19:40:17.036Z,99754.59
2018-12-12T19:42:56.075Z,99748.66
2018-12-12T19:45:35.557Z,99756.17
2018-12-12T19:48:14.706Z,99759.13
2018-12-12T19:50:53.944Z,99760.16
2018-12-12T19:53:34.058Z,99753.41
2018-12-12T19:56:13.155Z,99747.03
2018-12-12T19:58:51.914Z,99752.42
2018-12-12T20:01:31.262Z,99752.00
2018-12-12T20:04:11.520Z,99767.25
2018-12-12T20:06:50.537Z,99756.61
2018-12-12T20:09:30.223Z,99765.74
2018-12-12T20:12:10.180Z,99763.37
2018-12-12T20:14:49.025Z,99774.89
2018-12-12T20:17:27.824Z,99781.11
2018-12-12T20:20:07.036Z,99773.61
2018-12-12T20:22:46.608Z,99782.68
2018-12-12T20:25:25.682Z,99784.15
2018-12-12T20:28:04.751Z,99778.65
2018-12-12T20:30:48.511Z,99789.92
2018-12-12T20:33:27.833Z,99784.58
2018-12-12T20:36:06.673Z,99798.95
2018-12-12T20:38:47.270Z,99799.30
2018-12-12T20:41:26.208Z,99805.56
2018-12-12T20:44:05.359Z,99807.58
2018-12-12T20:46:44.596Z,99803.11
2018-12-12T20:49:23.381Z,99811.19
2018-12-12T20:52:03.580Z,99803.25
2018-12-12T20:54:42.743Z,99812.08
2018-12-12T20:57:22.841Z,99802.89
2018-12-12T21:00:02.277Z,99811.30
2018-12-12T21:02:41.482Z,99817.37
2018-12-12T21:05:21.404Z,99815.84
2018-12-12T21:08:01.201Z,99827.13
2018-12-12T21:10:40.906Z,99826.01
2018-12-12T21:13:20.504Z,99830.41
2018-12-12T21:16:00.878Z,99835.86
2018-12-12T21:18:42.678Z,99834.45
2018-12-12T21:21:21.661Z,99840.48
2018-12-12T21:24:01.022Z,99843.84
2018-12-12T21:26:40.391Z,99858.64
2018-12-12T21:29:19.899Z,99857.33
2018-12-12T21:31:59.030Z,99864.86
2018-12-12T21:34:38.585Z,99862.59
2018-12-12T21:37:17.465Z,99872.79
2018-12-12T21:39:57.048Z,99880.86
2018-12-12T21:42:37.228Z,99876.22
2018-12-12T21:45:17.328Z,99891.23
2018-12-12T21:47:56.373Z,99882.06
2018-12-12T21:50:36.474Z,99890.88
2018-12-12T21:56:09.819Z,99892.41
2018-12-12T21:58:47.286Z,99904.70
2018-12-12T22:01:26.817Z,99912.75
2018-12-12T22:04:11.965Z,99924.82
2018-12-12T22:06:49.024Z,99913.61
2018-12-12T22:09:26.030Z,99922.41
2018-12-12T22:12:03.781Z,99931.23
2018-12-12T22:14:45.868Z,99933.88
2018-12-12T22:17:23.484Z,99936.94
2018-12-12T22:20:01.901Z,99934.16
2018-12-12T22:22:50.685Z,99943.53
2018-12-12T22:25:27.946Z,99946.12
2018-12-12T22:28:05.579Z,99946.73
2018-12-12T22:30:42.564Z,99945.84
2018-12-12T22:33:19.177Z,99956.09
2018-12-12T22:35:56.229Z,99956.09
2018-12-12T22:38:33.331Z,99954.75
2018-12-12T22:41:10.836Z,99957.27
2018-12-12T22:43:48.438Z,99969.95
2018-12-12T22:49:16.652Z,99978.80
2018-12-12T22:52:01.440Z,99974.56
2018-12-12T22:54:45.034Z,99975.81
2018-12-12T22:57:21.789Z,99981.06
2018-12-12T22:59:58.311Z,99994.41
2018-12-12T23:02:35.048Z,99993.42
2018-12-12T23:05:11.565Z,100000.05
2018-12-12T23:07:56.759Z,100003.53
2018-12-12T23:10:36.541Z,100005.41
2018-12-12T23:13:13.995Z,100013.20
2018-12-12T23:15:56.998Z,100021.48
2018-12-12T23:18:35.965Z,100028.52
2018-12-12T23:23:54.447Z,100038.63
2018-12-12T23:26:32.252Z,100037.71
2018-12-12T23:29:08.683Z,100036.27
2018-12-12T23:31:52.431Z,100044.55
2018-12-12T23:34:29.624Z,100045.55
2018-12-12T23:37:06.456Z,100054.74
2018-12-12T23:39:42.950Z,100053.63
2018-12-12T23:42:22.492Z,100063.02
2018-12-12T23:45:05.093Z,100069.17
2018-12-12T23:47:42.335Z,100070.98
2018-12-12T23:50:18.698Z,100074.81
2018-12-12T23:52:57.249Z,100079.33
2018-12-12T23:55:38.494Z,100082.41
2018-12-12T23:58:15.337Z,100083.89
